TAF codé : 2019/06/18 15:45 TAF LFLC 181400Z 1815/1915 08005KT CAVOK BECMG 1819/1821 18010G20KT BECMG 1823/1901 VRB02KT BECMG 1913/1915 SCT050CB.
Prévisions météorologiques décodées (TAF) à l'aéroport Clermont-Ferrand / Aulnat

Nous sommes le 18/06/2019 à 19:31 CEST (heure de Paris)

Prévisions émises le : 18/06/2019 à 17:45 CEST (15:45 UTC) valables le 18 à 16h00 CEST (14h00 UTC) durant 24 heures.

Entre 15h00 (le 18) et 15h00 (le 19) :
Vent : légère brise de secteur Est (080 degrès) à 5 knots (6 mph, 9 km/h, Force 2)
Météo : bonne visibilité et aucun nuage bas (plafond et visibilité OK)

Devenant entre 19h00 (le 18) et 21h00 (le 18) :
Vent : petite brise de secteur Sud (180 degrès) à 10 knots (12 mph, 19 km/h, Force 3) avec des rafales à 20 knots (23 mph 37 km/h)

Devenant entre 23h00 (le 18) et 01h00 (le 19) :
Vent : très légère brise de secteur variable à 2 knots (2 mph, 4 km/h, Force 1)

Devenant entre 13h00 (le 19) et 15h00 (le 19) :
Nuages : dispersés à 5000 pieds avec cumulonimbus